createdAt,value
2016-12-11T00:00:19.442Z,928.72
2016-12-11T00:00:47.586Z,928.73
2016-12-11T00:01:15.728Z,928.72
2016-12-11T00:01:43.883Z,928.76
2016-12-11T00:02:12.060Z,928.73
2016-12-11T00:02:40.347Z,928.74
2016-12-11T00:03:08.523Z,928.77
2016-12-11T00:03:36.685Z,928.79
2016-12-11T00:04:04.864Z,928.74
2016-12-11T00:04:33.006Z,928.78
2016-12-11T00:05:01.173Z,928.74
2016-12-11T00:05:29.348Z,928.75
2016-12-11T00:05:57.502Z,928.76
2016-12-11T00:06:25.645Z,928.74
2016-12-11T00:06:53.806Z,928.73
2016-12-11T00:07:21.970Z,928.72
2016-12-11T00:07:50.087Z,928.76
2016-12-11T00:08:18.373Z,928.74
2016-12-11T00:08:46.560Z,928.75
2016-12-11T00:09:14.725Z,928.76
2016-12-11T00:09:42.889Z,928.76
2016-12-11T00:10:11.051Z,928.77
2016-12-11T00:10:39.225Z,928.78
2016-12-11T00:11:07.365Z,928.77
2016-12-11T00:11:35.557Z,928.78
2016-12-11T00:12:03.719Z,928.81
2016-12-11T00:12:31.881Z,928.81
2016-12-11T00:13:00.037Z,928.79
2016-12-11T00:13:28.188Z,928.78
2016-12-11T00:13:56.402Z,928.81
2016-12-11T00:14:24.586Z,928.77
2016-12-11T00:14:52.878Z,928.83
2016-12-11T00:15:21.043Z,928.84
2016-12-11T00:15:49.189Z,928.83
2016-12-11T00:16:17.369Z,928.82
2016-12-11T00:16:45.645Z,928.82
2016-12-11T00:17:13.862Z,928.83
2016-12-11T00:17:42.128Z,928.82
2016-12-11T00:18:10.292Z,928.81
2016-12-11T00:18:38.474Z,928.85
2016-12-11T00:19:06.614Z,928.85
2016-12-11T00:19:34.778Z,928.84
2016-12-11T00:20:03.054Z,928.84
2016-12-11T00:20:31.213Z,928.84
2016-12-11T00:20:59.363Z,928.85
2016-12-11T00:21:27.572Z,928.85
2016-12-11T00:21:55.727Z,928.84
2016-12-11T00:22:23.887Z,928.83
2016-12-11T00:22:52.031Z,928.84
2016-12-11T00:23:20.182Z,928.84
2016-12-11T00:23:48.339Z,928.83
2016-12-11T00:24:16.617Z,928.85
2016-12-11T00:24:44.759Z,928.82
2016-12-11T00:25:12.904Z,928.81
2016-12-11T00:25:41.076Z,928.84
2016-12-11T00:26:09.247Z,928.85
2016-12-11T00:26:37.404Z,928.83
2016-12-11T00:27:05.572Z,928.82
2016-12-11T00:27:33.733Z,928.84
2016-12-11T00:28:01.919Z,928.82
2016-12-11T00:28:30.094Z,928.86
2016-12-11T00:28:58.267Z,928.83
2016-12-11T00:29:26.457Z,928.8
2016-12-11T00:29:54.624Z,928.84
2016-12-11T00:30:22.810Z,928.87
2016-12-11T00:30:50.994Z,928.85
2016-12-11T00:31:19.172Z,928.89
2016-12-11T00:31:47.348Z,928.88
2016-12-11T00:32:15.556Z,928.89
2016-12-11T00:32:43.766Z,928.87
2016-12-11T00:33:11.927Z,928.9
2016-12-11T00:33:40.194Z,928.94
2016-12-11T00:34:08.350Z,928.93
2016-12-11T00:34:36.523Z,928.96
2016-12-11T00:35:04.709Z,928.96
2016-12-11T00:35:32.888Z,928.94
2016-12-11T00:36:01.084Z,928.95
2016-12-11T00:36:29.237Z,928.96
2016-12-11T00:36:57.419Z,928.99
2016-12-11T00:37:25.584Z,929.02
2016-12-11T00:37:53.762Z,929.01
2016-12-11T00:38:21.901Z,929
2016-12-11T00:38:50.057Z,928.98
2016-12-11T00:39:18.225Z,929.03
2016-12-11T00:39:46.374Z,929.03
2016-12-11T00:40:14.566Z,929.02
2016-12-11T00:40:42.798Z,929.07
2016-12-11T00:41:11.086Z,929.02
2016-12-11T00:41:39.229Z,929.06
2016-12-11T00:42:07.390Z,929.08
2016-12-11T00:42:35.551Z,929.05
2016-12-11T00:43:03.729Z,929.07
2016-12-11T00:43:31.927Z,929.05
2016-12-11T00:44:00.162Z,929.06
2016-12-11T00:44:28.311Z,929.06
2016-12-11T00:44:56.494Z,929.09
2016-12-11T00:45:24.636Z,929.06
2016-12-11T00:45:52.806Z,929.09
2016-12-11T00:46:20.994Z,929.08
2016-12-11T00:46:49.171Z,929.1
2016-12-11T00:47:17.427Z,929.06
2016-12-11T00:47:45.594Z,929.07
2016-12-11T00:48:13.768Z,929.04
2016-12-11T00:48:41.919Z,929.09
2016-12-11T00:49:10.087Z,929.06
2016-12-11T00:49:38.275Z,929.07
2016-12-11T00:50:06.450Z,929.03
2016-12-11T00:50:34.626Z,929.06
2016-12-11T00:51:02.780Z,929.04
2016-12-11T00:51:30.945Z,929.04
2016-12-11T00:51:59.121Z,929.02
2016-12-11T00:52:27.253Z,929.02
2016-12-11T00:52:55.415Z,929.03
2016-12-11T00:53:23.604Z,929.01
2016-12-11T00:53:51.743Z,928.98
2016-12-11T00:54:19.894Z,929.02
2016-12-11T00:54:48.062Z,929.01
2016-12-11T00:55:16.200Z,929.01
2016-12-11T00:55:44.370Z,929.01
2016-12-11T00:56:12.538Z,929
2016-12-11T00:56:40.707Z,928.98
2016-12-11T00:57:08.856Z,928.97
2016-12-11T00:57:37.014Z,928.96
2016-12-11T00:58:05.146Z,928.96
2016-12-11T00:58:33.307Z,928.95
2016-12-11T00:59:01.459Z,928.92
2016-12-11T00:59:29.707Z,928.93
2016-12-11T00:59:57.876Z,928.91
2016-12-11T01:00:26.086Z,928.87
2016-12-11T01:00:54.222Z,928.89
2016-12-11T01:01:22.478Z,928.9
2016-12-11T01:01:50.631Z,928.95
2016-12-11T01:02:18.788Z,928.9
2016-12-11T01:02:46.940Z,928.93
2016-12-11T01:03:15.098Z,928.93
2016-12-11T01:03:43.280Z,928.94
2016-12-11T01:04:11.546Z,928.93
2016-12-11T01:04:39.752Z,928.94
2016-12-11T01:05:07.963Z,928.95
2016-12-11T01:05:36.124Z,928.95
2016-12-11T01:06:04.277Z,928.93
2016-12-11T01:06:32.428Z,928.91
2016-12-11T01:07:00.628Z,928.93
2016-12-11T01:07:28.794Z,928.93
2016-12-11T01:07:56.918Z,928.88
2016-12-11T01:08:25.055Z,928.89
2016-12-11T01:08:53.315Z,928.91
2016-12-11T01:09:21.480Z,928.88
2016-12-11T01:09:49.669Z,928.87
2016-12-11T01:10:17.848Z,928.87
2016-12-11T01:10:46.050Z,928.86
2016-12-11T01:11:14.186Z,928.88
2016-12-11T01:11:42.326Z,928.91
2016-12-11T01:12:10.490Z,928.9
2016-12-11T01:12:38.635Z,928.88
2016-12-11T01:13:06.794Z,928.87
2016-12-11T01:13:34.971Z,928.85
2016-12-11T01:14:03.147Z,928.87
2016-12-11T01:14:31.280Z,928.87
2016-12-11T01:14:59.422Z,928.87
2016-12-11T01:15:27.614Z,928.89
2016-12-11T01:15:55.816Z,928.88
2016-12-11T01:16:24.056Z,928.87
2016-12-11T01:16:52.263Z,928.86
2016-12-11T01:17:20.407Z,928.85
2016-12-11T01:17:48.567Z,928.82
2016-12-11T01:18:16.736Z,928.85
2016-12-11T01:18:44.876Z,928.82
2016-12-11T01:19:13.127Z,928.85
2016-12-11T01:19:41.329Z,928.85
2016-12-11T01:20:09.515Z,928.88
2016-12-11T01:20:37.697Z,928.86
2016-12-11T01:21:05.822Z,928.86
2016-12-11T01:21:33.999Z,928.84
2016-12-11T01:22:02.158Z,928.86
2016-12-11T01:22:30.521Z,928.87
2016-12-11T01:22:58.717Z,928.87
2016-12-11T01:23:26.870Z,928.86
2016-12-11T01:23:55.065Z,928.84
2016-12-11T01:24:23.216Z,928.82
2016-12-11T01:24:51.375Z,928.85
2016-12-11T01:25:19.568Z,928.82
2016-12-11T01:25:47.724Z,928.82
2016-12-11T01:26:15.865Z,928.83
2016-12-11T01:26:44.055Z,928.82
2016-12-11T01:27:12.305Z,928.83
2016-12-11T01:27:40.465Z,928.81
2016-12-11T01:28:08.651Z,928.84
2016-12-11T01:28:36.816Z,928.81
2016-12-11T01:29:04.985Z,928.82
2016-12-11T01:29:33.210Z,928.81
2016-12-11T01:30:01.468Z,928.76
2016-12-11T01:30:29.729Z,928.8
2016-12-11T01:30:57.884Z,928.77
2016-12-11T01:31:26.047Z,928.76
2016-12-11T01:31:54.297Z,928.76
2016-12-11T01:32:22.484Z,928.71
2016-12-11T01:32:50.633Z,928.72
2016-12-11T01:33:18.792Z,928.73
2016-12-11T01:33:46.941Z,928.68
2016-12-11T01:34:15.116Z,928.66
2016-12-11T01:34:43.289Z,928.66
2016-12-11T01:35:11.439Z,928.65
2016-12-11T01:35:39.657Z,928.68
2016-12-11T01:36:07.839Z,928.62
2016-12-11T01:36:36.010Z,928.65
2016-12-11T01:37:04.180Z,928.66
2016-12-11T01:37:32.423Z,928.62
2016-12-11T01:38:00.589Z,928.62
2016-12-11T01:38:28.738Z,928.59
2016-12-11T01:38:57.085Z,928.61
2016-12-11T01:39:25.232Z,928.63
2016-12-11T01:39:53.416Z,928.64
2016-12-11T01:40:21.599Z,928.62
2016-12-11T01:40:49.780Z,928.63
2016-12-11T01:41:18.024Z,928.57
2016-12-11T01:41:46.155Z,928.56
2016-12-11T01:42:14.314Z,928.58
2016-12-11T01:42:42.471Z,928.55
2016-12-11T01:43:10.655Z,928.57
2016-12-11T01:43:38.865Z,928.58
2016-12-11T01:44:07.021Z,928.61
2016-12-11T01:44:35.180Z,928.59
2016-12-11T01:45:03.336Z,928.56
2016-12-11T01:45:31.519Z,928.58
2016-12-11T01:45:59.724Z,928.56
2016-12-11T01:46:27.903Z,928.54
2016-12-11T01:46:56.068Z,928.58
2016-12-11T01:47:24.234Z,928.58
2016-12-11T01:47:52.394Z,928.59
2016-12-11T01:48:20.579Z,928.58
2016-12-11T01:48:48.720Z,928.6
2016-12-11T01:49:16.877Z,928.63
2016-12-11T01:49:45.022Z,928.63
2016-12-11T01:50:13.202Z,928.66
2016-12-11T01:50:41.370Z,928.66
2016-12-11T01:51:09.536Z,928.69
2016-12-11T01:51:37.763Z,928.69
2016-12-11T01:52:05.929Z,928.69
2016-12-11T01:52:34.102Z,928.7
2016-12-11T01:53:02.280Z,928.68
2016-12-11T01:53:30.466Z,928.71
2016-12-11T01:53:58.591Z,928.68
2016-12-11T01:54:26.845Z,928.69
2016-12-11T01:54:55.001Z,928.73
2016-12-11T01:55:23.161Z,928.65
2016-12-11T01:55:51.324Z,928.65
2016-12-11T01:56:19.495Z,928.65
2016-12-11T01:56:47.669Z,928.64
2016-12-11T01:57:15.813Z,928.65
2016-12-11T01:57:43.987Z,928.66
2016-12-11T01:58:12.220Z,928.68
2016-12-11T01:58:40.468Z,928.64
2016-12-11T01:59:08.660Z,928.66
2016-12-11T01:59:36.843Z,928.64
2016-12-11T02:00:05.072Z,928.63
2016-12-11T02:00:33.321Z,928.62
2016-12-11T02:01:01.564Z,928.63
2016-12-11T02:01:29.816Z,928.63
2016-12-11T02:01:57.972Z,928.64
2016-12-11T02:02:26.198Z,928.63
2016-12-11T02:02:54.343Z,928.63
2016-12-11T02:03:22.481Z,928.63
2016-12-11T02:03:50.633Z,928.66
2016-12-11T02:04:18.773Z,928.64
2016-12-11T02:04:46.929Z,928.66
2016-12-11T02:05:15.113Z,928.65
2016-12-11T02:05:43.288Z,928.6
2016-12-11T02:06:11.484Z,928.6
2016-12-11T02:06:39.654Z,928.57
2016-12-11T02:07:07.810Z,928.59
2016-12-11T02:07:35.967Z,928.58
2016-12-11T02:08:04.133Z,928.55
2016-12-11T02:08:32.287Z,928.57
2016-12-11T02:09:00.450Z,928.57
2016-12-11T02:09:28.616Z,928.51
2016-12-11T02:09:56.796Z,928.54
2016-12-11T02:10:24.959Z,928.51
2016-12-11T02:10:53.182Z,928.54
2016-12-11T02:11:21.379Z,928.52
2016-12-11T02:11:49.538Z,928.5
2016-12-11T02:12:17.768Z,928.53
2016-12-11T02:12:45.923Z,928.49
2016-12-11T02:13:14.071Z,928.51
2016-12-11T02:13:42.235Z,928.54
2016-12-11T02:14:10.368Z,928.53
2016-12-11T02:14:38.518Z,928.52
2016-12-11T02:15:06.702Z,928.5
2016-12-11T02:15:35.046Z,928.51
2016-12-11T02:16:03.210Z,928.47
2016-12-11T02:16:31.376Z,928.44
2016-12-11T02:16:59.549Z,928.46
2016-12-11T02:17:27.718Z,928.43
2016-12-11T02:17:55.987Z,928.43
2016-12-11T02:18:24.175Z,928.41
2016-12-11T02:18:52.337Z,928.44
2016-12-11T02:19:20.514Z,928.43
2016-12-11T02:19:48.707Z,928.44
2016-12-11T02:20:16.867Z,928.45
2016-12-11T02:20:45.048Z,928.39
2016-12-11T02:21:13.200Z,928.41
2016-12-11T02:21:41.453Z,928.38
2016-12-11T02:22:09.627Z,928.38
2016-12-11T02:22:37.764Z,928.4
2016-12-11T02:23:05.936Z,928.4
2016-12-11T02:23:34.135Z,928.39
2016-12-11T02:24:02.292Z,928.37
2016-12-11T02:24:30.470Z,928.36
2016-12-11T02:24:58.623Z,928.34
2016-12-11T02:25:26.764Z,928.34
2016-12-11T02:25:54.916Z,928.3
2016-12-11T02:26:23.175Z,928.29
2016-12-11T02:26:51.354Z,928.26
2016-12-11T02:27:19.598Z,928.26
2016-12-11T02:27:47.748Z,928.3
2016-12-11T02:28:15.917Z,928.25
2016-12-11T02:28:44.075Z,928.22
2016-12-11T02:29:12.236Z,928.25
2016-12-11T02:29:40.416Z,928.24
2016-12-11T02:30:08.682Z,928.2
2016-12-11T02:30:36.838Z,928.22
2016-12-11T02:31:05.008Z,928.22
2016-12-11T02:31:33.188Z,928.2
2016-12-11T02:32:01.341Z,928.19
2016-12-11T02:32:29.485Z,928.22
2016-12-11T02:32:57.649Z,928.22
2016-12-11T02:33:25.813Z,928.17
2016-12-11T02:33:53.964Z,928.19
2016-12-11T02:34:22.119Z,928.15
2016-12-11T02:34:50.299Z,928.15
2016-12-11T02:35:18.449Z,928.15
2016-12-11T02:35:46.597Z,928.17
2016-12-11T02:36:14.777Z,928.18
2016-12-11T02:36:43.002Z,928.14
2016-12-11T02:37:11.178Z,928.16
2016-12-11T02:37:39.348Z,928.16
2016-12-11T02:38:07.507Z,928.15
2016-12-11T02:38:35.678Z,928.12
2016-12-11T02:39:03.830Z,928.1
2016-12-11T02:39:32.056Z,928.1
2016-12-11T02:40:00.264Z,928.06
2016-12-11T02:40:28.415Z,928.07
2016-12-11T02:40:56.585Z,928.08
2016-12-11T02:41:24.759Z,928.07
2016-12-11T02:41:52.921Z,928.07
2016-12-11T02:42:21.073Z,928.07
2016-12-11T02:42:49.209Z,928.02
2016-12-11T02:43:17.465Z,928.06
2016-12-11T02:43:45.631Z,928.05
2016-12-11T02:44:13.811Z,928.09
2016-12-11T02:44:42.046Z,928.06
2016-12-11T02:45:10.198Z,928.05
2016-12-11T02:45:38.362Z,928.04
2016-12-11T02:46:06.507Z,928.04
2016-12-11T02:46:34.672Z,928.06
2016-12-11T02:47:02.852Z,928.04
2016-12-11T02:47:31.050Z,928.05
2016-12-11T02:47:59.227Z,928.04
2016-12-11T02:48:27.481Z,928.01
2016-12-11T02:48:55.631Z,928.05
2016-12-11T02:49:23.909Z,928.05
2016-12-11T02:49:52.085Z,928.04
2016-12-11T02:50:20.256Z,927.99
2016-12-11T02:50:48.405Z,928.03
2016-12-11T02:51:16.563Z,928.03
2016-12-11T02:51:44.728Z,928.04
2016-12-11T02:52:12.894Z,928.03
2016-12-11T02:52:41.063Z,927.99
2016-12-11T02:53:09.228Z,927.99
2016-12-11T02:53:37.402Z,928.01
2016-12-11T02:54:05.547Z,928.02
2016-12-11T02:54:33.783Z,927.99
2016-12-11T02:55:01.940Z,927.96
2016-12-11T02:55:30.115Z,927.97
2016-12-11T02:55:58.279Z,927.94
2016-12-11T02:56:26.530Z,927.96
2016-12-11T02:56:54.685Z,928.01
2016-12-11T02:57:22.978Z,927.95
2016-12-11T02:57:51.149Z,927.97
2016-12-11T02:58:19.307Z,927.98
2016-12-11T02:58:47.473Z,927.96
2016-12-11T02:59:15.627Z,927.96
2016-12-11T02:59:43.798Z,927.93
2016-12-11T03:00:11.976Z,927.91
2016-12-11T03:00:40.218Z,927.93
2016-12-11T03:01:08.461Z,927.92
2016-12-11T03:01:36.610Z,927.96
2016-12-11T03:02:04.793Z,927.95
2016-12-11T03:02:32.936Z,927.95
2016-12-11T03:03:01.095Z,927.98
2016-12-11T03:03:29.407Z,927.93
2016-12-11T03:03:57.571Z,927.95
2016-12-11T03:04:25.899Z,927.94
2016-12-11T03:04:54.057Z,927.97
2016-12-11T03:05:22.223Z,927.94
2016-12-11T03:05:50.373Z,927.93
2016-12-11T03:06:18.550Z,927.94
2016-12-11T03:06:46.718Z,927.87
2016-12-11T03:07:14.874Z,927.89
2016-12-11T03:07:43.103Z,927.86
2016-12-11T03:08:11.275Z,927.85
2016-12-11T03:08:39.446Z,927.84
2016-12-11T03:09:07.671Z,927.8
2016-12-11T03:09:35.815Z,927.81
2016-12-11T03:10:03.968Z,927.83
2016-12-11T03:10:32.099Z,927.81
2016-12-11T03:11:00.271Z,927.82
2016-12-11T03:11:28.531Z,927.8
2016-12-11T03:11:56.705Z,927.77
2016-12-11T03:12:24.853Z,927.79
2016-12-11T03:12:53.000Z,927.77
2016-12-11T03:13:21.175Z,927.77
2016-12-11T03:13:49.356Z,927.77
2016-12-11T03:14:17.633Z,927.77
2016-12-11T03:14:45.899Z,927.79
2016-12-11T03:15:14.109Z,927.78
2016-12-11T03:15:42.279Z,927.78
2016-12-11T03:16:10.443Z,927.77
2016-12-11T03:16:38.624Z,927.68
2016-12-11T03:17:06.796Z,927.7
2016-12-11T03:17:34.934Z,927.7
2016-12-11T03:18:03.117Z,927.67
2016-12-11T03:18:31.406Z,927.66
2016-12-11T03:18:59.590Z,927.69
2016-12-11T03:19:27.741Z,927.67
2016-12-11T03:19:55.879Z,927.64
2016-12-11T03:20:24.032Z,927.63
2016-12-11T03:20:52.242Z,927.66
2016-12-11T03:21:20.472Z,927.6
2016-12-11T03:21:48.595Z,927.61
2016-12-11T03:22:16.729Z,927.58
2016-12-11T03:22:44.913Z,927.6
2016-12-11T03:23:13.091Z,927.57
2016-12-11T03:23:41.246Z,927.57
2016-12-11T03:24:09.415Z,927.61
2016-12-11T03:24:37.568Z,927.61
2016-12-11T03:25:05.726Z,927.58
2016-12-11T03:25:33.913Z,927.57
2016-12-11T03:26:02.071Z,927.59
2016-12-11T03:26:30.242Z,927.57
2016-12-11T03:26:58.405Z,927.58
2016-12-11T03:27:26.589Z,927.55
2016-12-11T03:27:54.747Z,927.6
2016-12-11T03:28:22.997Z,927.57
2016-12-11T03:28:51.142Z,927.54
2016-12-11T03:29:19.341Z,927.53
2016-12-11T03:29:47.479Z,927.51
2016-12-11T03:30:15.718Z,927.47
2016-12-11T03:30:43.860Z,927.51
2016-12-11T03:31:12.042Z,927.51
2016-12-11T03:31:40.237Z,927.46
2016-12-11T03:32:08.389Z,927.5
2016-12-11T03:32:36.560Z,927.45
2016-12-11T03:33:04.706Z,927.48
2016-12-11T03:33:32.880Z,927.47
2016-12-11T03:34:01.045Z,927.46
2016-12-11T03:34:29.227Z,927.43
2016-12-11T03:34:57.390Z,927.45
2016-12-11T03:35:25.538Z,927.46
2016-12-11T03:35:53.728Z,927.47
2016-12-11T03:36:21.902Z,927.48
2016-12-11T03:36:50.037Z,927.48
2016-12-11T03:37:18.295Z,927.47
2016-12-11T03:37:46.558Z,927.49
2016-12-11T03:38:14.815Z,927.46
2016-12-11T03:38:42.954Z,927.45
2016-12-11T03:39:11.117Z,927.4
2016-12-11T03:39:39.285Z,927.43
2016-12-11T03:40:07.409Z,927.44
2016-12-11T03:40:35.561Z,927.45
2016-12-11T03:41:03.721Z,927.43
2016-12-11T03:41:32.731Z,927.43
2016-12-11T03:42:00.963Z,927.43
2016-12-11T03:42:29.121Z,927.45
2016-12-11T03:42:57.380Z,927.45
2016-12-11T03:43:25.553Z,927.44
2016-12-11T03:43:53.723Z,927.45
2016-12-11T03:44:21.920Z,927.43
2016-12-11T03:44:50.195Z,927.38
2016-12-11T03:45:18.520Z,927.42
2016-12-11T03:45:46.668Z,927.4
2016-12-11T03:46:21.542Z,927.39
2016-12-11T03:46:49.675Z,927.44
2016-12-11T03:47:17.904Z,927.4
2016-12-11T03:47:46.069Z,927.39
2016-12-11T03:48:14.313Z,927.41
2016-12-11T03:48:42.519Z,927.4
2016-12-11T03:49:10.779Z,927.39
2016-12-11T03:49:38.961Z,927.37
2016-12-11T03:50:07.125Z,927.38
2016-12-11T03:50:35.297Z,927.36
2016-12-11T03:51:03.472Z,927.35
2016-12-11T03:51:31.649Z,927.35
2016-12-11T03:51:59.822Z,927.36
2016-12-11T03:52:27.999Z,927.36
2016-12-11T03:52:56.171Z,927.37
2016-12-11T03:53:24.329Z,927.34
2016-12-11T03:53:52.508Z,927.35
2016-12-11T03:54:20.666Z,927.38
2016-12-11T03:54:48.808Z,927.34
2016-12-11T03:55:16.967Z,927.3
2016-12-11T03:55:45.129Z,927.35
2016-12-11T03:56:13.313Z,927.33
2016-12-11T03:56:41.478Z,927.36
2016-12-11T03:57:09.638Z,927.34
2016-12-11T03:57:37.871Z,927.32
2016-12-11T03:58:06.047Z,927.31
2016-12-11T03:58:34.298Z,927.37
2016-12-11T03:59:02.446Z,927.37
2016-12-11T03:59:30.687Z,927.38
2016-12-11T03:59:58.854Z,927.38
2016-12-11T04:00:27.016Z,927.34
2016-12-11T04:00:55.164Z,927.41
2016-12-11T04:01:23.376Z,927.38
2016-12-11T04:01:51.571Z,927.31
2016-12-11T04:02:19.711Z,927.33
2016-12-11T04:02:47.891Z,927.35
2016-12-11T04:03:16.039Z,927.36
2016-12-11T04:03:44.200Z,927.38
2016-12-11T04:04:12.478Z,927.35
2016-12-11T04:04:40.624Z,927.38
2016-12-11T04:05:08.833Z,927.33
2016-12-11T04:05:36.986Z,927.33
2016-12-11T04:06:05.147Z,927.32
2016-12-11T04:06:33.340Z,927.31
2016-12-11T04:07:01.479Z,927.27
2016-12-11T04:07:29.768Z,927.31
2016-12-11T04:07:57.937Z,927.23
2016-12-11T04:08:26.121Z,927.21
2016-12-11T04:08:54.274Z,927.25
2016-12-11T04:09:22.400Z,927.26
2016-12-11T04:09:50.544Z,927.23
2016-12-11T04:10:18.690Z,927.23
2016-12-11T04:10:46.875Z,927.2
2016-12-11T04:11:15.164Z,927.18
2016-12-11T04:11:43.324Z,927.21
2016-12-11T04:12:11.497Z,927.24
2016-12-11T04:12:39.671Z,927.23
2016-12-11T04:13:07.947Z,927.19
2016-12-11T04:13:36.202Z,927.18
2016-12-11T04:14:04.411Z,927.22
2016-12-11T04:14:32.628Z,927.22
2016-12-11T04:15:00.783Z,927.22
2016-12-11T04:15:28.941Z,927.17
2016-12-11T04:15:57.170Z,927.17
2016-12-11T04:16:25.320Z,927.18
2016-12-11T04:16:53.489Z,927.16
2016-12-11T04:17:21.639Z,927.2
2016-12-11T04:17:49.800Z,927.2
2016-12-11T04:18:17.983Z,927.2
2016-12-11T04:18:46.173Z,927.19
2016-12-11T04:19:14.328Z,927.18
2016-12-11T04:19:42.564Z,927.2
2016-12-11T04:20:10.764Z,927.18
2016-12-11T04:20:38.937Z,927.2
2016-12-11T04:21:07.102Z,927.17
2016-12-11T04:21:35.264Z,927.17
2016-12-11T04:22:03.440Z,927.16
2016-12-11T04:22:31.596Z,927.16
2016-12-11T04:22:59.781Z,927.17
2016-12-11T04:23:27.939Z,927.16
2016-12-11T04:23:56.120Z,927.13
2016-12-11T04:24:25.644Z,927.16
2016-12-11T04:24:56.910Z,927.19
2016-12-11T04:25:25.194Z,927.11
2016-12-11T04:25:53.334Z,927.12
2016-12-11T04:26:21.487Z,927.15
2016-12-11T04:26:49.686Z,927.17
2016-12-11T04:27:17.877Z,927.12
2016-12-11T04:27:46.250Z,927.13
2016-12-11T04:28:14.419Z,927.12
2016-12-11T04:28:42.561Z,927.13
2016-12-11T04:29:10.719Z,927.09
2016-12-11T04:29:38.981Z,927.13
2016-12-11T04:30:07.239Z,927.11
2016-12-11T04:30:35.397Z,927.12
2016-12-11T04:31:03.661Z,927.11
2016-12-11T04:31:31.799Z,927.07
2016-12-11T04:31:59.963Z,927.11
2016-12-11T04:32:28.110Z,927.1
2016-12-11T04:32:56.254Z,927.1
2016-12-11T04:33:24.408Z,927.1
2016-12-11T04:33:52.554Z,927.08
2016-12-11T04:34:20.701Z,927.16
2016-12-11T04:34:48.822Z,927.15
2016-12-11T04:35:16.992Z,927.16
2016-12-11T04:35:45.136Z,927.15
2016-12-11T04:36:13.313Z,927.16
2016-12-11T04:36:41.475Z,927.2
2016-12-11T04:37:09.644Z,927.19
2016-12-11T04:37:37.820Z,927.19
2016-12-11T04:38:05.966Z,927.17
2016-12-11T04:38:34.122Z,927.19
2016-12-11T04:39:02.286Z,927.17
2016-12-11T04:39:30.420Z,927.19
2016-12-11T04:39:58.614Z,927.18
2016-12-11T04:40:26.788Z,927.19
2016-12-11T04:40:55.438Z,927.13
2016-12-11T04:41:23.681Z,927.14
2016-12-11T04:41:51.855Z,927.16
2016-12-11T04:42:20.033Z,927.14
2016-12-11T04:42:48.186Z,927.14
2016-12-11T04:43:16.454Z,927.15
2016-12-11T04:43:44.619Z,927.18
2016-12-11T04:44:12.794Z,927.13
2016-12-11T04:44:40.939Z,927.14
2016-12-11T04:45:09.098Z,927.18
2016-12-11T04:45:37.262Z,927.12
2016-12-11T04:46:05.528Z,927.14
2016-12-11T04:46:33.682Z,927.15
2016-12-11T04:47:01.820Z,927.13
2016-12-11T04:47:29.955Z,927.14
2016-12-11T04:47:58.098Z,927.17
2016-12-11T04:48:26.255Z,927.12
2016-12-11T04:48:54.403Z,927.08
2016-12-11T04:49:22.567Z,927.1
2016-12-11T04:49:50.739Z,927.11
2016-12-11T04:50:20.740Z,927.1
2016-12-11T04:50:48.932Z,927.09
2016-12-11T04:51:17.184Z,927.07
2016-12-11T04:51:45.334Z,926.99
2016-12-11T04:52:13.579Z,927.05
2016-12-11T04:52:41.719Z,927.09
2016-12-11T04:53:09.892Z,927.08
2016-12-11T04:53:38.046Z,927.07
2016-12-11T04:54:06.175Z,927.06
2016-12-11T04:54:34.412Z,927.04
2016-12-11T04:55:02.592Z,927.01
2016-12-11T04:55:30.772Z,927.06
2016-12-11T04:55:58.950Z,927.04
2016-12-11T04:56:27.128Z,927.02
2016-12-11T04:56:55.302Z,927.05
2016-12-11T04:57:23.479Z,927.02
2016-12-11T04:57:51.727Z,927.03
2016-12-11T04:58:19.944Z,927
2016-12-11T04:58:48.088Z,926.98
2016-12-11T04:59:16.329Z,926.98
2016-12-11T04:59:44.501Z,926.96
2016-12-11T05:00:12.667Z,926.96
2016-12-11T05:00:40.818Z,926.93
2016-12-11T05:01:09.000Z,926.93
2016-12-11T05:01:37.176Z,926.92
2016-12-11T05:02:05.365Z,926.94
2016-12-11T05:02:33.557Z,926.9
2016-12-11T05:03:01.703Z,926.93
2016-12-11T05:03:29.851Z,926.97
2016-12-11T05:03:58.008Z,926.94
2016-12-11T05:04:26.189Z,926.92
2016-12-11T05:04:54.354Z,926.94
2016-12-11T05:05:22.574Z,926.95
2016-12-11T05:05:50.722Z,926.95
2016-12-11T05:06:18.881Z,926.93
2016-12-11T05:06:47.013Z,926.89
2016-12-11T05:07:15.164Z,926.91
2016-12-11T05:07:43.301Z,926.93
2016-12-11T05:08:11.464Z,926.89
2016-12-11T05:08:39.706Z,926.85
2016-12-11T05:09:07.890Z,926.87
2016-12-11T05:09:36.060Z,926.85
2016-12-11T05:10:04.196Z,926.87
2016-12-11T05:10:32.397Z,926.8
2016-12-11T05:11:00.608Z,926.76
2016-12-11T05:11:28.797Z,926.77
2016-12-11T05:11:56.962Z,926.76
2016-12-11T05:12:25.118Z,926.74
2016-12-11T05:12:53.294Z,926.73
2016-12-11T05:13:21.460Z,926.69
2016-12-11T05:13:49.664Z,926.74
2016-12-11T05:14:17.837Z,926.76
2016-12-11T05:14:46.039Z,926.76
2016-12-11T05:15:14.220Z,926.78
2016-12-11T05:15:42.379Z,926.75
2016-12-11T05:16:10.558Z,926.77
2016-12-11T05:16:38.734Z,926.77
2016-12-11T05:17:06.919Z,926.77
2016-12-11T05:17:35.083Z,926.79
2016-12-11T05:18:03.286Z,926.76
2016-12-11T05:18:31.443Z,926.75
2016-12-11T05:18:59.694Z,926.77
2016-12-11T05:19:27.856Z,926.72
2016-12-11T05:19:56.014Z,926.74
2016-12-11T05:20:24.209Z,926.66
2016-12-11T05:20:52.388Z,926.75
2016-12-11T05:21:20.644Z,926.64
2016-12-11T05:21:48.826Z,926.66
2016-12-11T05:22:16.978Z,926.69
2016-12-11T05:22:45.249Z,926.73
2016-12-11T05:23:13.407Z,926.72
2016-12-11T05:23:41.602Z,926.71
2016-12-11T05:24:09.795Z,926.68
2016-12-11T05:24:38.113Z,926.67
2016-12-11T05:25:06.283Z,926.64
2016-12-11T05:25:34.572Z,926.71
2016-12-11T05:26:02.819Z,926.7
2016-12-11T05:26:30.990Z,926.71
2016-12-11T05:26:59.140Z,926.7
2016-12-11T05:27:27.299Z,926.76
2016-12-11T05:27:55.456Z,926.77
2016-12-11T05:28:23.717Z,926.76
2016-12-11T05:28:51.900Z,926.75
2016-12-11T05:29:20.077Z,926.81
2016-12-11T05:29:48.228Z,926.77
2016-12-11T05:30:16.447Z,926.78
2016-12-11T05:30:44.585Z,926.76
2016-12-11T05:31:12.756Z,926.71
2016-12-11T05:31:40.933Z,926.75
2016-12-11T05:32:09.141Z,926.74
2016-12-11T05:32:37.341Z,926.72
2016-12-11T05:33:05.609Z,926.73
2016-12-11T05:33:33.792Z,926.7
2016-12-11T05:34:02.060Z,926.68
2016-12-11T05:34:30.234Z,926.74
2016-12-11T05:34:58.417Z,926.69
2016-12-11T05:35:26.698Z,926.67
2016-12-11T05:35:54.870Z,926.71
2016-12-11T05:36:23.137Z,926.73
2016-12-11T05:36:51.324Z,926.69
2016-12-11T05:37:19.475Z,926.67
2016-12-11T05:37:47.656Z,926.71
2016-12-11T05:38:15.831Z,926.72
2016-12-11T05:38:44.018Z,926.71
2016-12-11T05:39:12.169Z,926.74
2016-12-11T05:39:40.345Z,926.72
2016-12-11T05:40:08.514Z,926.75
2016-12-11T05:40:36.660Z,926.75
2016-12-11T05:41:04.802Z,926.76
2016-12-11T05:41:32.976Z,926.77
2016-12-11T05:42:01.133Z,926.72
2016-12-11T05:42:29.313Z,926.73
2016-12-11T05:42:57.482Z,926.75
2016-12-11T05:43:25.650Z,926.74
2016-12-11T05:43:53.834Z,926.78
2016-12-11T05:44:21.982Z,926.76
2016-12-11T05:44:50.136Z,926.79
2016-12-11T05:45:18.392Z,926.79
2016-12-11T05:45:46.538Z,926.78
2016-12-11T05:46:14.745Z,926.79
2016-12-11T05:46:42.894Z,926.76
2016-12-11T05:47:11.097Z,926.79
2016-12-11T05:47:39.244Z,926.83
2016-12-11T05:48:07.390Z,926.7
2016-12-11T05:48:35.524Z,926.74
2016-12-11T05:49:03.660Z,926.72
2016-12-11T05:49:31.832Z,926.7
2016-12-11T05:50:00.008Z,926.69
2016-12-11T05:50:28.183Z,926.69
2016-12-11T05:50:56.435Z,926.67
2016-12-11T05:51:24.684Z,926.68
2016-12-11T05:51:52.832Z,926.61
2016-12-11T05:52:20.996Z,926.61
2016-12-11T05:52:49.144Z,926.63